Time;durP1;ratioP1;P1;durP2;ratioP2;P2;SDS_P1;SDS_P2;PMS_P1;PMS_P2;Temp;Humidity;BMP_temperature;BMP_pressure;BME280_temperature;BME280_humidity;BME280_pressure;Samples;Min_cycle;Max_cycle;Signal;HPM_P1;HPM_P2
2022/10/03 00:00:39;;;;;;;15.77;3.28;;;12.80;99.90;;;;;;4957586;28;92817;-72
2022/10/03 00:03:28;;;;;;;12.10;2.00;;;12.80;99.90;;;;;;4956462;28;92425;-72
2022/10/03 00:06:20;;;;;;;14.23;2.22;;;12.70;99.90;;;;;;4956492;28;91717;-72
2022/10/03 00:08:59;;;;;;;8.55;2.00;;;12.70;99.90;;;;;;4957522;28;93265;-72
2022/10/03 00:11:44;;;;;;;20.83;3.53;;;12.70;99.90;;;;;;4957581;28;93385;-72
2022/10/03 00:14:46;;;;;;;12.73;2.65;;;12.60;99.90;;;;;;4938470;28;94889;-72
2022/10/03 00:17:24;;;;;;;11.07;2.03;;;12.60;99.90;;;;;;4972063;28;92553;-72
2022/10/03 00:20:29;;;;;;;10.88;2.03;;;12.60;99.90;;;;;;4955959;28;92822;-72
2022/10/03 00:23:14;;;;;;;10.82;2.33;;;12.60;99.90;;;;;;4922737;28;95797;-72
2022/10/03 00:25:41;;;;;;;8.45;2.08;;;12.50;99.90;;;;;;4955391;28;92539;-72
2022/10/03 00:28:37;;;;;;;11.77;2.40;;;12.50;99.90;;;;;;4956222;28;92564;-72
2022/10/03 00:31:15;;;;;;;7.53;1.88;;;12.50;99.90;;;;;;4971381;28;95658;-72
2022/10/03 00:34:03;;;;;;;13.35;2.40;;;12.50;99.90;;;;;;4955838;28;92930;-72
2022/10/03 00:36:59;;;;;;;13.30;2.30;;;12.50;99.90;;;;;;4972334;28;92467;-72
2022/10/03 00:39:40;;;;;;;11.27;2.78;;;12.50;99.90;;;;;;4939419;28;92903;-72
2022/10/03 00:42:17;;;;;;;11.40;2.22;;;12.60;99.90;;;;;;4955726;28;95684;-72
2022/10/03 00:45:02;;;;;;;12.52;3.45;;;12.60;99.90;;;;;;4971508;28;98185;-72
2022/10/03 00:48:01;;;;;;;14.55;2.53;;;12.70;99.90;;;;;;4955474;28;92584;-72
2022/10/03 00:50:49;;;;;;;10.05;1.92;;;12.80;99.90;;;;;;4957085;28;92449;-72
2022/10/03 00:53:16;;;;;;;15.32;2.60;;;12.80;99.90;;;;;;4956637;28;93231;-72
2022/10/03 00:55:51;;;;;;;9.20;2.65;;;12.90;99.90;;;;;;4939048;28;95581;-72
2022/10/03 00:58:34;;;;;;;9.82;2.55;;;13.00;99.90;;;;;;4956554;28;92603;-72
2022/10/03 01:01:26;;;;;;;8.45;1.95;;;13.00;99.90;;;;;;4971916;28;91680;-72
2022/10/03 01:04:15;;;;;;;12.68;2.47;;;13.10;99.90;;;;;;4956700;28;92743;-72
2022/10/03 01:07:20;;;;;;;7.25;2.58;;;13.10;99.90;;;;;;4956412;28;93085;-72
2022/10/03 01:10:29;;;;;;;11.02;2.50;;;13.10;99.90;;;;;;4955449;28;94763;-72
2022/10/03 01:13:21;;;;;;;13.23;1.98;;;13.10;99.90;;;;;;4956705;28;92446;-72
2022/10/03 01:16:26;;;;;;;10.07;2.10;;;13.10;99.90;;;;;;4971185;28;95669;-72
2022/10/03 01:19:03;;;;;;;7.43;2.13;;;13.20;99.90;;;;;;4955146;28;93220;-72
2022/10/03 01:21:59;;;;;;;12.13;2.53;;;13.10;99.90;;;;;;4955275;28;92617;-72
2022/10/03 01:24:44;;;;;;;7.72;1.83;;;13.20;99.90;;;;;;4955223;28;92526;-72
2022/10/03 01:27:16;;;;;;;11.90;2.25;;;13.20;99.90;;;;;;4970563;28;95722;-72
2022/10/03 01:32:54;;;;;;;;;;;13.30;99.90;;;;;;4956761;28;92931;-72
2022/10/03 01:35:27;;;;;;;8.32;2.00;;;13.20;99.90;;;;;;4988851;28;92384;-73
2022/10/03 01:38:08;;;;;;;6.80;1.23;;;13.30;99.90;;;;;;4954931;28;95397;-72
2022/10/03 01:40:38;;;;;;;9.75;1.88;;;13.30;99.90;;;;;;4956176;28;95291;-72
2022/10/03 01:43:12;;;;;;;14.48;2.10;;;13.40;99.90;;;;;;4970326;28;92921;-72
2022/10/03 01:45:51;;;;;;;;;;;13.40;99.90;;;;;;4956709;28;92449;-72
2022/10/03 01:48:52;;;;;;;10.77;1.92;;;13.40;99.90;;;;;;4955868;28;93252;-72
2022/10/03 01:51:32;;;;;;;11.07;2.25;;;13.40;99.90;;;;;;4970518;28;98718;-72
2022/10/03 01:54:18;;;;;;;10.05;2.72;;;13.50;99.90;;;;;;4956365;28;92479;-72
2022/10/03 01:57:09;;;;;;;7.78;1.98;;;13.50;99.90;;;;;;4956624;28;92359;-72
2022/10/03 01:59:46;;;;;;;13.02;2.13;;;13.50;99.90;;;;;;4956037;28;93206;-72
2022/10/03 02:02:18;;;;;;;8.18;1.42;;;13.50;99.90;;;;;;4955954;28;93066;-72
2022/10/03 02:05:04;;;;;;;8.90;1.92;;;13.50;99.90;;;;;;4953682;28;94889;-72
2022/10/03 02:07:54;;;;;;;10.27;1.77;;;13.60;99.90;;;;;;4955841;28;92416;-72
2022/10/03 02:10:20;;;;;;;9.40;2.20;;;13.60;99.90;;;;;;4955549;28;92977;-72
2022/10/03 02:13:07;;;;;;;9.40;1.73;;;13.50;99.90;;;;;;4955680;28;92987;-72
2022/10/03 02:15:48;;;;;;;10.20;2.05;;;13.60;99.90;;;;;;4955718;28;92372;-72
2022/10/03 02:18:22;;;;;;;11.07;2.20;;;13.60;99.90;;;;;;4955637;28;92460;-72
2022/10/03 02:21:12;;;;;;;11.50;1.98;;;13.60;99.90;;;;;;4970723;28;95649;-72
2022/10/03 02:23:43;;;;;;;10.52;2.58;;;13.60;99.90;;;;;;4956298;28;92780;-72
2022/10/03 02:26:30;;;;;;;12.52;2.22;;;13.50;99.90;;;;;;4954953;28;92561;-72
2022/10/03 02:29:12;;;;;;;12.38;2.10;;;13.50;99.90;;;;;;4954469;28;92520;-72
2022/10/03 02:32:14;;;;;;;9.70;2.03;;;13.40;99.90;;;;;;4954418;28;95688;-72
2022/10/03 02:35:00;;;;;;;10.15;2.65;;;13.40;99.90;;;;;;4936986;28;94406;-72
2022/10/03 02:37:48;;;;;;;16.27;2.03;;;13.20;99.90;;;;;;4955426;28;92431;-72
2022/10/03 02:40:30;;;;;;;11.05;1.65;;;13.20;99.90;;;;;;4955324;28;92430;-72
2022/10/03 02:43:22;;;;;;;12.77;2.28;;;13.10;99.90;;;;;;4955546;28;93212;-72
2022/10/03 02:45:58;;;;;;;6.13;2.05;;;13.10;99.90;;;;;;4955532;28;93022;-72
2022/10/03 02:48:46;;;;;;;13.48;2.13;;;13.00;99.90;;;;;;4937922;28;92888;-72
2022/10/03 02:51:32;;;;;;;10.25;1.58;;;12.90;99.90;;;;;;4937730;28;94404;-72
2022/10/03 02:54:29;;;;;;;9.30;1.63;;;12.90;99.90;;;;;;4954307;28;93176;-72
2022/10/03 02:56:59;;;;;;;9.30;2.22;;;12.90;99.90;;;;;;4972802;28;95707;-72
2022/10/03 03:00:11;;;;;;;11.20;2.53;;;12.90;99.90;;;;;;4955911;28;94835;-72
2022/10/03 03:03:02;;;;;;;8.05;1.83;;;13.00;99.90;;;;;;4958578;28;92465;-72
2022/10/03 03:05:58;;;;;;;7.38;2.03;;;13.00;99.90;;;;;;4956753;28;96566;-72
2022/10/03 03:08:51;;;;;;;10.88;2.03;;;13.00;99.90;;;;;;4952777;28;95484;-72
2022/10/03 03:11:30;;;;;;;8.73;2.03;;;13.00;99.90;;;;;;4957150;28;92511;-72
2022/10/03 03:14:34;;;;;;;4.82;1.50;;;13.10;99.90;;;;;;4940975;28;92531;-72
2022/10/03 03:17:14;;;;;;;14.45;2.30;;;13.10;99.90;;;;;;4956497;28;99852;-72
2022/10/03 03:19:48;;;;;;;9.80;2.92;;;13.10;99.90;;;;;;4958651;28;91873;-72
2022/10/03 03:22:33;;;;;;;10.05;2.30;;;13.00;99.90;;;;;;4958276;28;92397;-72
2022/10/03 03:25:28;;;;;;;11.35;1.88;;;13.00;99.90;;;;;;4973138;28;92420;-72
2022/10/03 03:28:27;;;;;;;4.15;1.58;;;13.00;99.90;;;;;;4956781;28;95626;-72
2022/10/03 03:31:00;;;;;;;11.30;3.42;;;13.00;99.90;;;;;;4956816;28;95350;-72
2022/10/03 03:33:39;;;;;;;6.80;1.60;;;13.00;99.90;;;;;;4956839;28;92439;-72
2022/10/03 03:36:27;;;;;;;7.95;1.75;;;12.90;99.90;;;;;;4958144;28;92549;-72
2022/10/03 03:39:18;;;;;;;9.02;1.92;;;13.00;99.90;;;;;;4956891;28;93057;-72
2022/10/03 03:42:11;;;;;;;6.60;2.63;;;13.00;99.90;;;;;;4958001;28;93016;-72
2022/10/03 03:45:18;;;;;;;10.93;1.80;;;13.00;99.90;;;;;;4957877;28;92413;-72
2022/10/03 03:48:09;;;;;;;6.88;1.33;;;13.10;99.90;;;;;;4937020;28;91770;-72
2022/10/03 03:51:22;;;;;;;9.30;1.80;;;13.10;99.90;;;;;;4957453;28;93242;-72
2022/10/03 03:53:57;;;;;;;8.50;2.42;;;13.10;99.90;;;;;;4954398;28;93338;-72
2022/10/03 03:56:48;;;;;;;10.80;1.55;;;13.10;99.90;;;;;;4954796;28;94932;-72
2022/10/03 03:59:40;;;;;;;9.05;1.73;;;13.20;99.90;;;;;;4957995;28;92455;-72
2022/10/03 04:02:17;;;;;;;11.00;1.63;;;13.20;99.90;;;;;;4956880;28;94060;-72
2022/10/03 04:05:05;;;;;;;9.00;2.53;;;13.30;99.90;;;;;;4957726;28;93027;-72
2022/10/03 04:07:44;;;;;;;6.85;1.73;;;13.30;99.90;;;;;;4957158;28;92437;-72
2022/10/03 04:10:42;;;;;;;9.93;1.80;;;13.30;99.90;;;;;;4957781;28;92884;-72
2022/10/03 04:13:31;;;;;;;8.20;1.73;;;13.30;99.90;;;;;;4956305;28;93540;-72
2022/10/03 04:18:56;;;;;;;6.95;2.47;;;13.40;99.90;;;;;;4956492;28;92899;-72
2022/10/03 04:19:43;;;;;;;7.60;1.90;;;13.40;99.90;;;;;;4972316;28;92514;-72
2022/10/03 04:22:33;;;;;;;9.45;2.40;;;13.40;99.90;;;;;;4972362;28;92331;-72
2022/10/03 04:25:14;;;;;;;9.15;1.73;;;13.30;99.90;;;;;;4948781;28;97304;-72
2022/10/03 04:28:21;;;;;;;10.15;1.60;;;13.30;99.90;;;;;;4956719;28;95399;-72
2022/10/03 04:31:06;;;;;;;14.63;2.30;;;13.40;99.90;;;;;;4957265;28;92367;-72
2022/10/03 04:33:52;;;;;;;8.23;1.70;;;13.30;99.90;;;;;;4957297;28;92470;-72
2022/10/03 04:36:57;;;;;;;8.20;1.98;;;13.30;99.90;;;;;;4956978;28;92469;-72
2022/10/03 04:40:06;;;;;;;8.30;2.13;;;13.30;99.90;;;;;;4939088;28;94767;-72
2022/10/03 04:42:51;;;;;;;8.23;1.85;;;13.30;99.90;;;;;;4936607;28;92555;-72
2022/10/03 04:45:40;;;;;;;10.32;1.95;;;13.20;99.90;;;;;;4957475;28;91712;-72
2022/10/03 04:48:37;;;;;;;10.07;1.90;;;13.20;99.90;;;;;;4971856;28;96037;-72
2022/10/03 04:51:14;;;;;;;7.85;1.60;;;13.10;99.90;;;;;;4971766;28;95827;-72
2022/10/03 04:53:49;;;;;;;9.52;2.42;;;13.10;99.90;;;;;;4954476;28;94916;-72
2022/10/03 04:56:22;;;;;;;10.25;1.77;;;13.10;99.90;;;;;;4955820;28;92470;-72
2022/10/03 04:59:00;;;;;;;11.20;1.80;;;13.10;99.90;;;;;;4956539;28;93145;-72
2022/10/03 05:01:39;;;;;;;9.68;2.10;;;13.10;99.90;;;;;;4971061;28;95980;-72
2022/10/03 05:04:35;;;;;;;7.55;1.38;;;13.10;99.90;;;;;;4955870;28;92985;-72
2022/10/03 05:07:41;;;;;;;6.60;1.75;;;13.10;99.90;;;;;;4957042;28;92454;-72
2022/10/03 05:10:34;;;;;;;11.02;2.15;;;13.10;99.90;;;;;;4956675;28;93267;-72
2022/10/03 05:13:29;;;;;;;6.63;2.05;;;13.10;99.90;;;;;;4956576;28;93139;-72
2022/10/03 05:16:14;;;;;;;12.10;1.77;;;13.10;99.90;;;;;;4971689;28;92765;-72
2022/10/03 05:19:04;;;;;;;7.05;1.52;;;13.10;99.90;;;;;;4937934;28;92350;-72
2022/10/03 05:21:49;;;;;;;9.95;2.42;;;13.00;99.90;;;;;;4953773;28;95647;-72
2022/10/03 05:24:30;;;;;;;9.90;2.40;;;12.90;99.90;;;;;;4971145;28;95519;-72
2022/10/03 05:27:06;;;;;;;8.85;1.75;;;12.90;99.90;;;;;;4955791;28;92475;-72
2022/10/03 05:29:50;;;;;;;11.00;2.08;;;12.90;99.90;;;;;;4955814;28;92459;-72
2022/10/03 05:32:33;;;;;;;;;;;12.90;99.90;;;;;;4956744;28;92971;-72
2022/10/03 05:35:30;;;;;;;8.05;1.40;;;12.70;99.90;;;;;;4957247;28;92552;-72
2022/10/03 05:38:03;;;;;;;11.30;1.73;;;12.60;99.90;;;;;;4955043;28;92934;-72
2022/10/03 05:40:34;;;;;;;7.05;1.40;;;12.60;99.90;;;;;;4956794;28;91648;-72
2022/10/03 05:43:14;;;;;;;5.82;1.60;;;12.60;99.90;;;;;;4954737;28;95724;-72
2022/10/03 05:45:48;;;;;;;9.68;2.25;;;12.60;99.90;;;;;;4970842;28;95713;-72
2022/10/03 05:48:39;;;;;;;9.32;2.13;;;12.50;99.90;;;;;;4969957;28;95345;-72
2022/10/03 05:51:21;;;;;;;5.10;1.42;;;12.60;99.90;;;;;;4954963;28;92885;-72
2022/10/03 05:54:06;;;;;;;7.65;2.22;;;12.50;99.90;;;;;;4955805;28;93350;-72
2022/10/03 05:57:00;;;;;;;9.82;2.13;;;12.50;99.90;;;;;;4938351;28;95579;-72
2022/10/03 06:00:06;;;;;;;10.57;1.90;;;12.50;99.90;;;;;;4938238;28;92423;-72
2022/10/03 06:03:14;;;;;;;7.72;1.73;;;12.40;99.90;;;;;;4933958;28;92566;-72
2022/10/03 06:06:06;;;;;;;7.95;2.45;;;12.40;99.90;;;;;;4917928;28;93440;-72
2022/10/03 06:08:51;;;;;;;7.88;2.08;;;12.40;99.90;;;;;;4953129;28;95504;-72
2022/10/03 06:11:46;;;;;;;14.25;1.77;;;12.40;99.90;;;;;;4970491;28;92385;-72
2022/10/03 06:14:28;;;;;;;8.60;2.42;;;12.40;99.90;;;;;;4955821;28;92363;-72
2022/10/03 06:17:07;;;;;;;7.40;1.55;;;12.40;99.90;;;;;;4952690;28;95644;-72
2022/10/03 06:19:51;;;;;;;6.22;1.70;;;12.40;99.90;;;;;;4953660;28;98346;-72
2022/10/03 06:22:45;;;;;;;10.65;2.50;;;12.40;99.90;;;;;;4955767;28;92351;-72
2022/10/03 06:25:54;;;;;;;8.63;1.88;;;12.50;99.90;;;;;;4954635;28;92467;-72
2022/10/03 06:28:21;;;;;;;7.18;1.98;;;12.50;99.90;;;;;;4953764;28;93258;-72
2022/10/03 06:31:06;;;;;;;7.45;2.10;;;12.50;99.90;;;;;;4972898;28;95768;-72
2022/10/03 06:34:01;;;;;;;5.10;1.77;;;12.60;99.90;;;;;;4957882;28;92603;-72
2022/10/03 06:37:00;;;;;;;10.55;2.15;;;12.60;99.90;;;;;;4941719;28;91736;-72
2022/10/03 06:40:09;;;;;;;5.72;1.60;;;12.60;99.90;;;;;;4958968;28;92465;-72
2022/10/03 06:43:04;;;;;;;7.03;2.00;;;12.60;99.90;;;;;;4955486;28;93022;-72
2022/10/03 06:46:09;;;;;;;8.13;1.67;;;12.60;99.90;;;;;;4958124;28;95277;-72
2022/10/03 06:49:15;;;;;;;8.35;2.47;;;12.70;99.90;;;;;;4941358;28;92562;-72
2022/10/03 06:52:08;;;;;;;6.95;2.50;;;12.80;99.90;;;;;;4949866;28;93345;-72
2022/10/03 06:55:12;;;;;;;7.70;1.92;;;13.00;99.90;;;;;;4956126;28;93038;-72
2022/10/03 06:58:08;;;;;;;6.30;2.25;;;13.30;99.90;;;;;;4973568;28;92419;-72
2022/10/03 07:00:44;;;;;;;5.63;1.55;;;13.30;99.90;;;;;;4973296;28;92507;-72
2022/10/03 07:03:36;;;;;;;7.10;1.40;;;13.30;99.90;;;;;;4973312;28;99426;-72
2022/10/03 07:06:13;;;;;;;6.97;1.92;;;13.50;99.90;;;;;;4958770;28;93096;-72
2022/10/03 07:08:46;;;;;;;9.13;1.98;;;13.50;99.90;;;;;;4958468;28;92993;-72
2022/10/03 07:11:33;;;;;;;8.77;2.33;;;13.60;99.90;;;;;;4973405;28;92413;-72
2022/10/03 07:14:09;;;;;;;7.80;2.13;;;13.70;99.90;;;;;;4971258;28;98442;-72
2022/10/03 07:16:58;;;;;;;8.38;1.80;;;13.60;99.90;;;;;;4956749;28;94194;-72
2022/10/03 07:19:55;;;;;;;10.35;1.77;;;13.70;99.90;;;;;;4958528;28;92596;-72
2022/10/03 07:22:35;;;;;;;12.00;4.15;;;13.80;99.90;;;;;;4957100;28;92371;-72
2022/10/03 07:25:21;;;;;;;10.38;2.60;;;13.80;99.90;;;;;;4957951;28;93047;-72
2022/10/03 07:28:14;;;;;;;7.35;1.67;;;13.80;99.90;;;;;;4956529;28;93014;-72
2022/10/03 07:30:53;;;;;;;4.78;1.75;;;13.90;99.90;;;;;;4958166;28;92540;-73
2022/10/03 07:33:22;;;;;;;8.48;1.42;;;13.90;99.90;;;;;;4957390;28;91796;-74
2022/10/03 07:39:24;;;;;;;5.93;2.05;;;14.10;99.90;;;;;;4972128;28;95515;-72
2022/10/03 07:42:16;;;;;;;8.23;1.80;;;14.30;99.90;;;;;;4955853;28;94891;-72
2022/10/03 07:45:00;;;;;;;8.70;2.00;;;14.50;99.90;;;;;;4957942;28;92482;-72
2022/10/03 07:47:43;;;;;;;5.80;2.15;;;14.80;99.90;;;;;;4956466;28;93192;-72
2022/10/03 07:50:49;;;;;;;9.10;4.03;;;15.20;99.90;;;;;;4957294;28;92795;-72
2022/10/03 07:53:28;;;;;;;7.80;2.53;;;15.80;99.90;;;;;;4956813;28;92453;-72
2022/10/03 07:56:16;;;;;;;9.15;2.95;;;16.60;99.90;;;;;;4957624;28;92992;-72
2022/10/03 07:58:50;;;;;;;7.10;3.25;;;17.30;99.90;;;;;;4972126;28;95919;-72
2022/10/03 08:01:26;;;;;;;6.55;3.35;;;17.80;99.90;;;;;;4957988;28;92896;-72
2022/10/03 08:04:27;;;;;;;5.53;3.85;;;18.50;99.90;;;;;;4972189;28;92593;-73
2022/10/03 08:07:04;;;;;;;5.47;2.25;;;19.00;99.90;;;;;;4957564;28;92359;-72
2022/10/03 08:09:49;;;;;;;5.75;1.65;;;19.30;99.90;;;;;;4954698;28;95651;-72
2022/10/03 08:12:32;;;;;;;7.43;2.30;;;19.60;99.90;;;;;;4955906;28;95379;-72
2022/10/03 08:15:27;;;;;;;5.13;1.30;;;20.00;99.90;;;;;;4957404;28;92346;-72
2022/10/03 08:18:28;;;;;;;7.32;2.60;;;20.00;98.80;;;;;;4971909;28;92428;-73
2022/10/03 08:21:08;;;;;;;8.50;1.85;;;20.00;99.10;;;;;;4956617;28;95264;-73
2022/10/03 08:24:05;;;;;;;6.50;3.40;;;19.70;99.10;;;;;;4972073;28;95680;-72
2022/10/03 08:26:43;;;;;;;9.65;2.38;;;19.50;99.10;;;;;;4955357;28;92678;-73
2022/10/03 08:29:36;;;;;;;6.15;1.98;;;19.10;99.50;;;;;;4957426;28;92383;-73
2022/10/03 08:32:32;;;;;;;7.22;2.28;;;18.90;99.30;;;;;;4948278;28;93598;-73
2022/10/03 08:35:02;;;;;;;7.00;2.40;;;18.60;99.90;;;;;;4956866;28;92997;-72
2022/10/03 08:37:48;;;;;;;4.22;1.38;;;18.30;99.90;;;;;;4938108;28;94991;-73
2022/10/03 08:40:38;;;;;;;8.63;2.60;;;18.30;99.90;;;;;;4957173;28;92458;-72
2022/10/03 08:43:53;;;;;;;8.63;3.17;;;18.10;99.90;;;;;;4938922;28;95809;-72
2022/10/03 08:46:42;;;;;;;5.75;1.67;;;17.90;99.90;;;;;;4951596;28;94451;-72
2022/10/03 08:49:34;;;;;;;6.95;2.53;;;17.70;99.90;;;;;;4956939;28;92390;-72
2022/10/03 08:52:25;;;;;;;8.27;1.60;;;17.70;99.90;;;;;;4956395;28;92405;-72
2022/10/03 08:55:15;;;;;;;4.20;1.30;;;17.50;99.90;;;;;;4955186;28;96067;-72
2022/10/03 08:58:07;;;;;;;5.00;1.83;;;17.40;99.90;;;;;;4955620;28;95463;-72
2022/10/03 09:01:05;;;;;;;8.30;2.13;;;17.40;99.90;;;;;;4955279;28;92443;-73
2022/10/03 09:03:59;;;;;;;7.72;2.33;;;17.30;99.90;;;;;;4956828;28;92371;-72
2022/10/03 09:06:53;;;;;;;9.07;2.15;;;17.20;99.90;;;;;;4970311;28;98220;-72
2022/10/03 09:09:47;;;;;;;4.82;1.98;;;17.30;99.90;;;;;;4955417;28;95360;-72
2022/10/03 09:12:30;;;;;;;6.70;2.10;;;17.20;99.90;;;;;;4956493;28;92450;-72
2022/10/03 09:15:10;;;;;;;7.80;1.40;;;17.20;99.90;;;;;;4956565;28;92739;-72
2022/10/03 09:18:05;;;;;;;7.00;2.65;;;17.30;99.90;;;;;;4956155;28;93159;-72
2022/10/03 09:20:41;;;;;;;10.70;3.13;;;17.30;99.90;;;;;;4956348;28;92796;-72
2022/10/03 09:23:46;;;;;;;7.78;2.15;;;17.30;99.90;;;;;;4956292;28;92428;-72
2022/10/03 09:26:28;;;;;;;;;;;17.40;99.90;;;;;;4955538;28;91882;-72
2022/10/03 09:29:24;;;;;;;10.52;2.63;;;17.30;99.90;;;;;;4956227;28;93273;-72
2022/10/03 09:32:18;;;;;;;8.00;2.78;;;17.40;99.90;;;;;;4956360;28;93289;-72
2022/10/03 09:35:07;;;;;;;6.03;1.40;;;17.50;99.90;;;;;;4955335;28;94765;-73
2022/10/03 09:37:53;;;;;;;4.68;1.25;;;17.50;99.90;;;;;;4956545;28;92365;-72
2022/10/03 09:40:38;;;;;;;6.50;1.60;;;17.60;99.90;;;;;;4954525;28;93180;-72
2022/10/03 09:43:20;;;;;;;5.38;2.13;;;17.70;99.90;;;;;;4956353;28;93010;-72
2022/10/03 09:46:31;;;;;;;4.72;1.42;;;17.80;99.90;;;;;;4938744;28;92444;-72
2022/10/03 09:49:20;;;;;;;5.95;1.40;;;17.90;99.90;;;;;;4917751;28;92673;-72
2022/10/03 09:52:00;;;;;;;7.43;2.60;;;17.90;99.90;;;;;;4918242;28;93285;-72
2022/10/03 09:54:55;;;;;;;5.97;1.95;;;18.00;99.90;;;;;;4949747;28;93053;-72
2022/10/03 09:57:44;;;;;;;6.47;2.20;;;18.10;99.90;;;;;;4956016;28;92478;-73
2022/10/03 10:00:21;;;;;;;7.00;1.65;;;18.20;99.90;;;;;;4970827;28;92390;-72
2022/10/03 10:02:54;;;;;;;4.18;1.15;;;18.20;99.90;;;;;;4953055;28;98590;-72
2022/10/03 10:05:43;;;;;;;8.90;2.53;;;18.20;99.90;;;;;;4957927;28;95357;-72
2022/10/03 10:08:19;;;;;;;10.35;4.00;;;18.30;99.90;;;;;;4959520;28;92931;-72
2022/10/03 10:10:56;;;;;;;7.93;2.63;;;18.30;99.90;;;;;;4959726;28;92623;-72
2022/10/03 10:13:34;;;;;;;5.68;2.70;;;18.20;99.60;;;;;;4959239;28;93257;-72
2022/10/03 10:16:50;;;;;;;5.82;1.80;;;18.40;99.90;;;;;;4959176;28;92971;-72
2022/10/03 10:19:21;;;;;;;3.40;1.27;;;18.50;99.90;;;;;;4956673;28;92564;-72
2022/10/03 10:22:45;;;;;;;5.03;1.27;;;18.60;99.70;;;;;;4959317;28;91712;-72
2022/10/03 10:25:47;;;;;;;5.40;2.13;;;18.70;99.40;;;;;;4920633;28;95708;-72
2022/10/03 10:28:40;;;;;;;7.75;2.20;;;18.90;99.20;;;;;;4920585;28;95445;-72
2022/10/03 10:31:23;;;;;;;6.03;2.25;;;19.00;99.00;;;;;;4952622;28;95304;-72
2022/10/03 10:34:25;;;;;;;3.17;1.48;;;19.10;98.90;;;;;;4957467;28;92555;-72
2022/10/03 10:37:15;;;;;;;5.70;1.67;;;19.30;98.80;;;;;;4941404;28;95968;-73
2022/10/03 10:39:52;;;;;;;5.07;1.80;;;19.30;98.70;;;;;;4973854;28;96462;-73
2022/10/03 10:42:45;;;;;;;5.32;1.55;;;19.50;98.70;;;;;;4958956;28;92478;-72
2022/10/03 10:45:34;;;;;;;5.83;1.57;;;19.70;98.20;;;;;;4959013;28;92649;-72
2022/10/03 10:48:15;;;;;;;6.03;1.80;;;19.60;97.20;;;;;;4958673;28;92501;-72
2022/10/03 10:51:26;;;;;;;5.30;1.23;;;19.70;97.20;;;;;;4957957;28;92952;-72
2022/10/03 10:54:11;;;;;;;6.68;1.65;;;19.90;96.70;;;;;;4973553;28;92473;-72
2022/10/03 10:57:15;;;;;;;5.90;1.98;;;19.90;96.70;;;;;;4957154;28;92500;-73
2022/10/03 11:00:14;;;;;;;4.78;1.45;;;20.00;95.80;;;;;;4957242;28;95608;-72
2022/10/03 11:03:00;;;;;;;5.60;1.42;;;20.10;95.90;;;;;;4953137;28;97846;-73
2022/10/03 11:06:05;;;;;;;6.10;1.77;;;20.10;96.20;;;;;;4973280;28;92407;-72
2022/10/03 11:08:33;;;;;;;3.08;1.50;;;20.30;95.70;;;;;;4941912;28;92555;-73
2022/10/03 11:11:36;;;;;;;6.68;1.30;;;20.30;96.20;;;;;;4956781;28;93325;-73
2022/10/03 11:14:51;;;;;;;5.65;2.08;;;20.40;95.40;;;;;;4973172;28;93170;-72
2022/10/03 11:17:48;;;;;;;5.25;1.80;;;20.50;95.60;;;;;;4955774;28;92405;-73
2022/10/03 11:20:34;;;;;;;6.72;1.90;;;20.60;95.40;;;;;;4958758;28;91645;-73
2022/10/03 11:23:38;;;;;;;4.45;2.05;;;20.70;94.50;;;;;;4956777;28;95986;-72
2022/10/03 11:26:17;;;;;;;8.50;2.70;;;20.70;94.00;;;;;;4956689;28;93186;-73
2022/10/03 11:29:11;;;;;;;4.50;1.15;;;20.70;94.30;;;;;;4957312;28;94826;-73
2022/10/03 11:32:12;;;;;;;2.50;0.90;;;20.80;94.20;;;;;;4958077;28;92521;-73
2022/10/03 11:34:57;;;;;;;3.88;1.42;;;20.90;92.90;;;;;;4957450;28;93280;-73
2022/10/03 11:37:55;;;;;;;3.47;2.10;;;20.90;92.80;;;;;;4972470;28;95786;-73
2022/10/03 11:40:31;;;;;;;5.40;1.10;;;20.90;92.90;;;;;;4957983;28;92475;-73
2022/10/03 11:43:05;;;;;;;3.47;1.27;;;21.00;93.00;;;;;;4972923;28;92516;-72
2022/10/03 11:45:50;;;;;;;5.18;2.40;;;21.10;92.40;;;;;;4956431;28;93218;-73
2022/10/03 11:48:42;;;;;;;2.88;1.08;;;21.10;92.00;;;;;;4972895;28;95671;-73
2022/10/03 11:51:17;;;;;;;4.95;1.40;;;21.10;92.20;;;;;;4956851;28;92469;-72
2022/10/03 11:54:05;;;;;;;7.10;1.88;;;21.00;92.40;;;;;;4957454;28;92459;-72
2022/10/03 11:57:25;;;;;;;6.18;1.80;;;21.10;92.70;;;;;;4956339;28;95734;-72
2022/10/03 12:00:25;;;;;;;7.63;2.17;;;21.00;92.80;;;;;;4957445;28;95375;-73
2022/10/03 12:02:52;;;;;;;5.32;2.38;;;20.90;92.80;;;;;;4945410;28;92449;-72
2022/10/03 12:08:56;;;;;;;;;;;20.90;92.90;;;;;;4957871;28;93151;-73
2022/10/03 12:11:33;;;;;;;3.17;1.00;;;20.70;92.90;;;;;;4958782;28;92867;-73
2022/10/03 12:14:15;;;;;;;4.28;3.03;;;20.80;93.30;;;;;;4957911;28;92427;-73
2022/10/03 12:17:04;;;;;;;5.40;2.35;;;20.80;93.20;;;;;;4957842;28;91697;-73
2022/10/03 12:19:56;;;;;;;3.10;2.33;;;20.90;92.70;;;;;;4957063;28;93262;-72
2022/10/03 12:22:35;;;;;;;6.63;2.83;;;21.00;92.80;;;;;;4939845;28;95487;-72
2022/10/03 12:25:18;;;;;;;4.43;2.97;;;21.00;92.70;;;;;;4955299;28;95524;-73
2022/10/03 12:27:56;;;;;;;4.68;2.00;;;21.10;92.70;;;;;;4971241;28;92564;-73
2022/10/03 12:30:26;;;;;;;8.77;1.40;;;21.10;92.70;;;;;;4956007;28;93301;-72
2022/10/03 12:33:07;;;;;;;6.88;1.92;;;21.20;92.80;;;;;;4956903;28;92886;-73
2022/10/03 12:36:01;;;;;;;2.50;1.60;;;21.20;92.80;;;;;;4957037;28;92440;-73
2022/10/03 12:38:40;;;;;;;6.65;1.33;;;21.30;92.60;;;;;;4956726;28;93213;-73
2022/10/03 12:41:41;;;;;;;5.57;1.75;;;21.30;92.50;;;;;;4971788;28;94089;-73
2022/10/03 12:44:28;;;;;;;4.18;2.65;;;21.20;92.50;;;;;;4957432;28;93103;-73
2022/10/03 12:47:04;;;;;;;5.60;1.88;;;21.10;92.80;;;;;;4957233;28;92448;-72
2022/10/03 12:49:59;;;;;;;4.03;1.17;;;21.00;92.00;;;;;;4957030;28;92538;-72
2022/10/03 12:52:30;;;;;;;2.88;1.35;;;20.90;92.50;;;;;;4955740;28;95808;-72
2022/10/03 12:55:07;;;;;;;4.78;1.80;;;20.80;92.90;;;;;;4955652;28;95450;-73
2022/10/03 12:58:01;;;;;;;4.05;2.03;;;20.80;92.80;;;;;;4955387;28;92484;-73
2022/10/03 13:00:43;;;;;;;5.68;2.00;;;20.90;92.60;;;;;;4956887;28;92474;-72
2022/10/03 13:03:37;;;;;;;5.57;2.13;;;21.00;92.30;;;;;;4956778;28;93139;-73
2022/10/03 13:06:25;;;;;;;6.38;1.80;;;20.90;91.70;;;;;;4956764;28;93048;-73
2022/10/03 13:09:29;;;;;;;4.63;1.30;;;20.80;91.90;;;;;;4955778;28;92456;-72
2022/10/03 13:12:15;;;;;;;5.93;1.10;;;20.80;91.80;;;;;;4956644;28;91640;-73
2022/10/03 13:15:04;;;;;;;3.92;1.83;;;20.90;92.00;;;;;;4955993;28;93459;-75
2022/10/03 13:17:46;;;;;;;4.68;2.08;;;21.00;92.00;;;;;;4956602;28;93302;-72
2022/10/03 13:20:44;;;;;;;5.60;1.70;;;21.10;91.60;;;;;;4969929;28;94954;-73
2022/10/03 13:23:23;;;;;;;5.30;2.20;;;21.20;92.00;;;;;;4955475;28;92538;-73
2022/10/03 13:26:02;;;;;;;4.82;1.13;;;21.30;92.00;;;;;;4955980;28;93052;-73
2022/10/03 13:28:47;;;;;;;3.97;1.63;;;21.50;91.80;;;;;;4956302;28;92999;-73
2022/10/03 13:31:23;;;;;;;5.47;2.35;;;21.40;91.90;;;;;;4955198;28;92589;-72
2022/10/03 13:33:54;;;;;;;3.72;1.33;;;21.40;91.80;;;;;;4971119;28;92519;-73
2022/10/03 13:36:46;;;;;;;4.80;2.42;;;21.40;91.60;;;;;;4954751;28;94913;-73
2022/10/03 13:39:20;;;;;;;3.90;1.10;;;21.40;91.40;;;;;;4954478;28;92879;-73
2022/10/03 13:41:58;;;;;;;8.77;2.45;;;21.40;91.60;;;;;;4956136;28;92695;-73
2022/10/03 13:44:39;;;;;;;5.10;1.60;;;21.30;91.50;;;;;;4971289;28;92415;-73
2022/10/03 13:47:12;;;;;;;4.28;1.25;;;21.40;91.40;;;;;;4969939;28;98205;-73
2022/10/03 13:49:50;;;;;;;4.35;2.30;;;21.20;90.90;;;;;;4955863;28;95370;-73
2022/10/03 13:52:42;;;;;;;5.15;1.55;;;21.10;91.00;;;;;;4955036;28;92516;-73
2022/10/03 13:55:30;;;;;;;3.58;1.00;;;21.00;91.20;;;;;;4934263;28;92616;-72
2022/10/03 13:58:05;;;;;;;4.18;1.63;;;21.00;91.20;;;;;;4955742;28;93332;-73
2022/10/03 14:00:55;;;;;;;4.75;3.00;;;21.00;91.70;;;;;;4955977;28;93058;-73
2022/10/03 14:03:49;;;;;;;4.15;0.82;;;21.10;91.70;;;;;;4954976;28;92441;-72
2022/10/03 14:06:42;;;;;;;4.70;1.83;;;21.10;91.90;;;;;;4956482;28;91656;-73
2022/10/03 14:09:21;;;;;;;4.38;2.50;;;21.20;92.10;;;;;;4954829;28;93287;-73
2022/10/03 14:11:58;;;;;;;5.45;1.77;;;21.20;91.90;;;;;;4955618;28;93160;-73
2022/10/03 14:14:43;;;;;;;4.05;1.58;;;21.30;91.70;;;;;;4969655;28;94954;-72
2022/10/03 14:17:15;;;;;;;2.15;1.10;;;21.30;91.70;;;;;;4970691;28;92522;-73
2022/10/03 14:20:09;;;;;;;5.68;2.15;;;21.40;91.50;;;;;;4955444;28;93143;-73
2022/10/03 14:22:43;;;;;;;4.22;1.20;;;21.40;91.50;;;;;;4954532;28;92912;-73
2022/10/03 14:25:37;;;;;;;3.35;2.10;;;21.30;91.50;;;;;;4970955;28;92476;-73
2022/10/03 14:28:16;;;;;;;3.45;3.15;;;21.20;91.70;;;;;;4952420;28;92416;-73
2022/10/03 14:30:53;;;;;;;4.90;2.03;;;21.20;91.50;;;;;;4955843;28;93325;-73
2022/10/03 14:33:46;;;;;;;3.50;1.20;;;21.20;91.00;;;;;;4955943;28;92906;-72
2022/10/03 14:36:32;;;;;;;4.20;2.25;;;21.10;91.40;;;;;;4955814;28;93198;-73
2022/10/03 14:39:28;;;;;;;7.10;1.75;;;21.00;91.70;;;;;;4970583;28;92545;-72